Have a Safe July 4th! 

Flight Track Log - Related Links

Times and Time Zones

All times are in EDT time to prevent confusion due to time zone crossing. See the CSN432 flight status page for this flight to view local times or setup timezone preferences in your user account.

Time Position Orientation Groundspeed Altitude Reporting Facility
EDT Latitude Longitude Course Direction KTS MPH feet Rate Location/Type
Sun 01:48:31 PM 42.0500 -87.9167 20° North 197 227 3,200  Level Chicago TRACON
Sun 01:49:31 PM 42.1167 -87.8833 20° North 250 288 4,100 1,333 Climbing Chicago TRACON
Sun 01:50:01 PM 42.1539 -87.8781 North 261 300 5,200 2,283 Climbing Chicago Center
Sun 01:51:03 PM 42.2283 -87.8531 14° North 275 316 7,600 2,226 Climbing Chicago Center
Sun 01:52:05 PM 42.3053 -87.8356 10° North 284 327 9,800 1,887 Climbing Chicago Center
Sun 01:53:07 PM 42.3919 -87.8347 360° North 318 366 11,500 1,935 Climbing Chicago Center
Sun 01:54:09 PM 42.4778 -87.8008 16° North 321 369 13,800 2,274 Climbing Chicago Center
Sun 01:55:11 PM 42.5828 -87.7606 16° North 335 386 16,200 1,935 Climbing Chicago Center
Sun 01:56:13 PM 42.6817 -87.7717 355° North 355 409 17,800 1,597 Climbing Chicago Center
Sun 01:57:15 PM 42.7872 -87.7989 349° North 387 445 19,500 1,659 Climbing Chicago Center
Sun 01:58:16 PM 42.8672 -87.9069 315° West 403 464 21,200 1,659 Climbing Chicago Center
Sun 01:59:18 PM 42.9450 -88.0247 312° West 415 478 22,900 1,297 Climbing Chicago Center
Sun 02:04:40 PM 43.4440 -88.6090 312° West 477 549 29,500 1,194 Climbing FlightAware ADS-B
Sun 02:05:30 PM 43.5544 -88.7186 312° West 484 557 30,300 993 Climbing Chicago Center
Sun 02:07:11 PM 43.7389 -88.9025 324° Northwest 489 563 32,000 233 Climbing Minneapolis Center
Sun 02:12:48 PM 44.3480 -89.5240 324° Northwest 487 560 32,000  Level FlightAware ADS-B
Sun 02:13:23 PM 44.4172 -89.5972 324° Northwest 488 562 32,000  Level Minneapolis Center
Sun 02:14:25 PM 44.5272 -89.7103 324° Northwest 490 564 32,000  Level Minneapolis Center
Sun 02:15:27 PM 44.6367 -89.8236 324° Northwest 487 560 32,000  Level Minneapolis Center
Sun 02:16:29 PM 44.7647 -89.9594 323° Northwest 492 566 32,000  Level Minneapolis Center
Sun 02:17:31 PM 44.8694 -90.0692 323° Northwest 488 562 32,000  Level Minneapolis Center
Sun 02:18:33 PM 44.9786 -90.1836 323° Northwest 488 562 32,000  Level Minneapolis Center
Sun 02:19:36 PM 45.0872 -90.2992 323° Northwest 487 560 32,000  Level Minneapolis Center
Sun 02:20:38 PM 45.1958 -90.4150 323° Northwest 487 560 32,000  Level Minneapolis Center
Sun 02:21:40 PM 45.3028 -90.5322 322° Northwest 485 558 32,000  Level Minneapolis Center
Sun 02:22:42 PM 45.4328 -90.6717 323° Northwest 486 559 32,000  Level Minneapolis Center
Sun 02:23:44 PM 45.5411 -90.7878 323° Northwest 487 560 32,000  Level Minneapolis Center
Sun 02:29:40 PM 46.1800 -91.4940 323° Northwest 482 555 32,000  Level FlightAware ADS-B
Sun 02:30:58 PM 46.3033 -91.6339 323° Northwest 486 559 32,000  Level Minneapolis Center
Sun 02:32:00 PM 46.4092 -91.7519 322° Northwest 483 556 32,000  Level Minneapolis Center
Sun 02:33:02 PM 46.5136 -91.8719 322° Northwest 483 556 32,000  Level Minneapolis Center
Sun 02:34:04 PM 46.6406 -92.0161 322° Northwest 484 557 32,000  Level Minneapolis Center
Sun 02:35:06 PM 46.7450 -92.1378 321° Northwest 483 556 32,000  Level Minneapolis Center
Sun 02:36:08 PM 46.8483 -92.2614 321° Northwest 482 555 32,000  Level Minneapolis Center
Sun 02:37:11 PM 46.9389 -92.4036 313° West 480 552 32,000  Level Minneapolis Center
Sun 02:38:13 PM 47.0317 -92.5436 314° West 480 552 32,000  Level Minneapolis Center
Sun 02:39:15 PM 47.1444 -92.7078 315° West 479 551 32,000  Level Minneapolis Center
Sun 02:40:17 PM 47.2381 -92.8456 315° West 478 550 32,000  Level Minneapolis Center
Sun 02:41:19 PM 47.3306 -92.9825 315° West 477 549 32,000  Level Minneapolis Center
Sun 02:42:21 PM 47.4275 -93.1267 315° West 474 545 32,000  Level Minneapolis Center
Sun 02:43:23 PM 47.5261 -93.2814 313° West 480 552 32,000  Level Minneapolis Center
Sun 02:44:25 PM 47.6189 -93.4222 314° West 482 555 32,000  Level Minneapolis Center
Sun 02:45:27 PM 47.7106 -93.5642 314° West 479 551 32,000  Level Minneapolis Center
Sun 02:46:29 PM 47.8017 -93.7069 314° West 478 550 32,000  Level Minneapolis Center
Sun 02:47:31 PM 47.8939 -93.8500 314° West 480 552 32,000  Level Minneapolis Center
Sun 02:48:33 PM 48.0039 -94.0214 314° West 479 551 32,000  Level Minneapolis Center
Sun 02:49:35 PM 48.0950 -94.1656 313° West 478 550 32,000  Level Minneapolis Center
Sun 02:50:37 PM 48.1850 -94.3114 313° West 479 551 32,000  Level Minneapolis Center
Sun 02:51:39 PM 48.2764 -94.4556 314° West 478 550 32,000  Level Minneapolis Center
Sun 02:52:41 PM 48.3672 -94.6028 313° West 480 552 32,000  Level Minneapolis Center
Sun 02:53:43 PM 48.4583 -94.7489 313° West 480 552 32,000  Level Minneapolis Center
Sun 02:54:46 PM 48.5669 -94.9258 313° West 480 552 32,000  Level Minneapolis Center
Sun 02:55:48 PM 48.6572 -95.0739 313° West 480 552 32,000  Level Minneapolis Center
Sun 02:57:52 PM 48.8389 -95.3711 313° West 482 555 32,000  Level Minneapolis Center
Sun 02:58:56 PM 48.9286 -95.5208 312° West 481 554 32,000  Level Minneapolis Center
Sun 02:59:58 PM 49.0231 -95.6769 313° West 480 552 32,000  Level Minneapolis Center
Sun 03:01:01 PM 49.1167 -95.8500 310° West 480 552 32,000  Level Winnipeg Center
Sun 03:07:27 PM 49.6220 -96.7150 310° West 480 552 32,000 246 Level FlightAware ADS-B
Sun 03:09:08 PM 49.8110 -97.0390 312° West 475 547 34,000 558 Climbing FlightAware ADS-B
Sun 03:11:02 PM 50.0340 -97.3330 320° Northwest 457 526 34,000  Level FlightAware ADS-B
Sun 03:14:05 PM 50.3620 -97.6150 331° Northwest 458 527 34,000  Level FlightAware ADS-B
Sun 03:15:01 PM 50.4500 -97.7000 331° Northwest 450 518 34,000  Level Winnipeg Center
Sun 03:21:19 PM 51.0950 -98.2720 331° Northwest 450 518 34,000  Level FlightAware ADS-B
Sun 03:25:24 PM 51.6000 -98.7320 331° Northwest 444 511 34,000  Level FlightAware ADS-B
Sun 03:26:01 PM 51.6500 -98.8000 331° Northwest 440 506 34,000  Level Winnipeg Center
Sun 03:27:01 PM 51.7500 -98.8833 333° Northwest 440 506 34,000  Level Winnipeg Center
Sun 03:28:01 PM 51.8500 -99.0000 324° Northwest 440 506 34,000  Level Winnipeg Center
Sun 03:29:01 PM 51.9667 -99.0833 336° Northwest 440 506 34,000  Level Winnipeg Center
Sun 03:30:01 PM 52.0667 -99.2000 324° Northwest 430 495 34,000  Level Winnipeg Center
Sun 03:32:01 PM 52.2833 -99.4000 331° Northwest 430 495 34,000  Level Winnipeg Center
Sun 03:33:01 PM 52.3833 -99.4833 333° Northwest 430 495 34,000  Level Winnipeg Center
Sun 03:34:01 PM 52.5000 -99.6000 329° Northwest 440 506 34,000  Level Winnipeg Center
Sun 03:35:01 PM 52.6000 -99.7000 329° Northwest 440 506 34,000  Level Winnipeg Center
Sun 03:36:01 PM 52.6833 -99.8167 320° Northwest 440 506 34,000  Level Winnipeg Center
Sun 03:37:01 PM 52.8000 -99.9000 337° Northwest 440 506 34,000  Level Winnipeg Center
Sun 03:38:01 PM 52.9000 -100.0167 325° Northwest 440 506 34,000  Level Winnipeg Center
Sun 03:39:01 PM 53.0167 -100.1167 333° Northwest 440 506 34,000  Level Winnipeg Center
Sun 03:40:01 PM 53.1167 -100.2333 325° Northwest 440 506 34,000  Level Winnipeg Center
Sun 03:41:01 PM 53.2167 -100.3167 333° Northwest 440 506 34,000  Level Winnipeg Center
Sun 03:42:01 PM 53.3333 -100.4333 329° Northwest 430 495 34,000  Level Winnipeg Center
Sun 03:43:01 PM 53.4167 -100.5667 316° Northwest 440 506 34,000  Level Winnipeg Center
Sun 03:44:01 PM 53.5167 -100.6500 334° Northwest 450 518 34,000  Level Winnipeg Center
Sun 03:45:01 PM 53.6333 -100.7833 326° Northwest 450 518 34,000  Level Winnipeg Center
Sun 03:47:01 PM 53.8500 -101.0000 329° Northwest 450 518 34,000  Level Winnipeg Center
Sun 03:48:01 PM 53.9500 -101.0833 334° Northwest 440 506 34,000  Level Winnipeg Center
Sun 03:49:01 PM 54.0333 -101.2667 308° West 450 518 34,000  Level Winnipeg Center
Sun 03:50:11 PM 54.1000 -101.4167 307° West 440 506 34,000  Level Edmonton Center
Sun 03:51:01 PM 54.2000 -101.6000 313° West 460 529 34,000  Level Winnipeg Center
Sun 03:52:01 PM 54.2667 -101.7500 307° West 450 518 34,000  Level Winnipeg Center
Sun 03:53:01 PM 54.3500 -101.9333 308° West 450 518 34,000  Level Winnipeg Center
Sun 03:54:01 PM 54.4333 -102.0833 314° West 450 518 34,000  Level Winnipeg Center
Sun 03:55:01 PM 54.5000 -102.2667 302° West 450 518 34,000  Level Winnipeg Center
Sun 03:56:01 PM 54.5833 -102.4500 308° West 450 518 34,000  Level Winnipeg Center
Sun 03:57:01 PM 54.6500 -102.6167 305° West 450 518 34,000  Level Winnipeg Center
Sun 03:58:01 PM 54.7333 -102.8000 308° West 450 518 34,000  Level Winnipeg Center
Sun 03:59:01 PM 54.8000 -102.9500 308° West 450 518 34,000  Level Winnipeg Center
Sun 04:00:01 PM 54.8833 -103.1333 308° West 450 518 34,000  Level Winnipeg Center
Sun 04:02:01 PM 55.0333 -103.4833 307° West 450 518 34,000  Level Winnipeg Center
Sun 04:04:01 PM 55.1833 -103.8333 307° West 450 518 34,000  Level Winnipeg Center
Sun 04:05:01 PM 55.2500 -104.0167 303° West 460 529 34,000  Level Winnipeg Center
Sun 04:06:01 PM 55.3333 -104.2000 309° West 460 529 34,000  Level Winnipeg Center
Sun 04:07:01 PM 55.4000 -104.3667 305° West 460 529 34,000  Level Winnipeg Center
Sun 04:08:01 PM 55.4667 -104.5667 301° West 460 529 34,000  Level Winnipeg Center
Sun 04:09:01 PM 55.5667 -104.7500 314° West 460 529 34,000  Level Winnipeg Center
Sun 04:10:01 PM 55.6333 -104.9167 305° West 470 541 34,000  Level Winnipeg Center
Sun 04:11:01 PM 55.7000 -105.1167 301° West 470 541 34,000  Level Winnipeg Center
Sun 04:12:01 PM 55.7833 -105.3000 309° West 470 541 34,000  Level Winnipeg Center
Sun 04:13:01 PM 55.8500 -105.5000 301° West 470 541 34,000  Level Winnipeg Center
Sun 04:14:01 PM 55.9333 -105.7000 307° West 470 541 34,000  Level Winnipeg Center
Sun 04:15:01 PM 56.0000 -105.9000 301° West 480 552 34,000  Level Winnipeg Center
Sun 04:16:01 PM 56.1000 -106.1000 312° West 480 552 34,000  Level Winnipeg Center
Sun 04:17:01 PM 56.1500 -106.3000 294° West 480 552 34,000  Level Winnipeg Center
Sun 04:18:01 PM 56.2167 -106.4833 303° West 470 541 34,000  Level Winnipeg Center
Sun 04:19:01 PM 56.2833 -106.6833 301° West 470 541 34,000  Level Winnipeg Center
Sun 04:20:01 PM 56.3500 -106.8833 301° West 470 541 34,000  Level Winnipeg Center
Sun 04:21:01 PM 56.4167 -107.0833 301° West 470 541 34,000  Level Winnipeg Center
Sun 04:22:01 PM 56.4833 -107.2833 301° West 470 541 34,000  Level Winnipeg Center
Sun 04:23:01 PM 56.5500 -107.5000 299° West 470 541 34,000  Level Winnipeg Center
Sun 04:24:01 PM 56.6167 -107.7000 301° West 480 552 34,000  Level Winnipeg Center
Sun 04:25:01 PM 56.6833 -107.9333 298° West 480 552 34,000  Level Winnipeg Center
Sun 04:26:11 PM 56.7667 -108.1167 310° West 470 541 34,000  Level Edmonton Center
Sun 04:27:11 PM 56.8333 -108.3333 299° West 480 552 34,000  Level Edmonton Center
Sun 04:28:11 PM 56.8833 -108.5667 292° West 480 552 34,000  Level Edmonton Center
Sun 04:29:11 PM 56.9500 -108.7500 304° West 480 552 34,000  Level Edmonton Center
Sun 04:31:01 PM 57.0833 -109.2167 298° West 490 564 34,000  Level Winnipeg Center
Sun 04:32:01 PM 57.1333 -109.4667 290° West 490 564 34,000  Level Winnipeg Center
Sun 04:33:11 PM 57.1667 -109.6833 286° West 480 552 34,000  Level Edmonton Center
Sun 04:34:11 PM 57.2333 -109.9167 298° West 470 541 34,000  Level Edmonton Center
Sun 04:35:11 PM 57.2500 -110.1333 278° West 470 541 34,000  Level Edmonton Center
Sun 04:36:11 PM 57.3000 -110.4000 289° West 470 541 34,000  Level Edmonton Center
Sun 04:37:11 PM 57.3333 -110.6167 286° West 460 529 34,000  Level Edmonton Center
Sun 04:38:11 PM 57.3833 -110.8500 292° West 470 541 34,000  Level Edmonton Center
Sun 04:39:11 PM 57.4167 -111.0833 285° West 470 541 34,000  Level Edmonton Center
Sun 04:40:11 PM 57.4500 -111.3000 286° West 470 541 34,000  Level Edmonton Center
Sun 04:41:11 PM 57.5000 -111.5667 289° West 470 541 34,000  Level Edmonton Center
Sun 04:42:11 PM 57.5333 -111.8000 285° West 470 541 34,000  Level Edmonton Center
Sun 04:43:11 PM 57.5833 -112.0333 292° West 470 541 34,000  Level Edmonton Center
Sun 04:44:11 PM 57.6500 -112.2667 298° West 480 552 34,000  Level Edmonton Center
Sun 04:45:11 PM 57.6833 -112.5000 285° West 480 552 34,000  Level Edmonton Center
Sun 04:46:11 PM 57.7333 -112.7333 292° West 470 541 34,000  Level Edmonton Center
Sun 04:47:11 PM 57.7833 -112.9667 292° West 470 541 34,000  Level Edmonton Center
Sun 04:48:11 PM 57.8167 -113.2000 285° West 470 541 34,000  Level Edmonton Center
Sun 04:49:11 PM 57.8833 -113.4333 298° West 470 541 34,000  Level Edmonton Center
Sun 04:50:11 PM 57.9167 -113.6333 287° West 460 529 34,000  Level Edmonton Center
Sun 04:51:11 PM 57.9667 -113.8667 292° West 460 529 34,000  Level Edmonton Center
Sun 04:52:11 PM 58.0000 -114.1000 285° West 470 541 34,000  Level Edmonton Center
Sun 04:53:11 PM 58.0500 -114.3500 291° West 460 529 34,000  Level Edmonton Center
Sun 04:54:11 PM 58.1000 -114.5833 292° West 460 529 34,000  Level Edmonton Center
Sun 04:55:11 PM 58.1333 -114.8167 285° West 470 541 34,000  Level Edmonton Center
Sun 04:56:11 PM 58.1833 -115.0667 291° West 470 541 34,000 50 Level Edmonton Center
Sun 04:57:11 PM 58.2167 -115.3000 285° West 470 541 34,100 500 Climbing Edmonton Center
Sun 04:58:11 PM 58.2667 -115.5500 291° West 470 541 35,000 450 Climbing Edmonton Center
Sun 04:59:11 PM 58.3167 -115.7500 296° West 470 541 35,000  Level Edmonton Center
Sun 05:00:11 PM 58.3667 -116.0000 291° West 470 541 35,000  Level Edmonton Center
Sun 05:01:11 PM 58.4000 -116.2333 285° West 470 541 35,000  Level Edmonton Center
Sun 05:03:11 PM 58.4667 -116.7167 285° West 460 529 35,000  Level Edmonton Center
Sun 05:04:11 PM 58.5000 -116.9333 286° West 450 518 35,000  Level Edmonton Center
Sun 05:05:11 PM 58.5500 -117.2167 289° West 460 529 35,000  Level Edmonton Center
Sun 05:06:11 PM 58.5833 -117.4167 288° West 460 529 35,000  Level Edmonton Center
Sun 05:07:11 PM 58.6333 -117.6333 294° West 480 552 35,000  Level Edmonton Center
Sun 05:08:11 PM 58.6833 -117.8833 291° West 470 541 35,000  Level Edmonton Center
Sun 05:09:11 PM 58.7333 -118.1000 294° West 420 483 35,000  Level Edmonton Center
Sun 05:10:11 PM 58.7667 -118.3500 285° West 480 552 35,000  Level Edmonton Center
Sun 05:12:11 PM 58.8500 -118.8500 288° West 450 518 35,000  Level Edmonton Center
Sun 05:13:11 PM 58.9000 -119.0667 294° West 470 541 35,000  Level Edmonton Center
Sun 05:14:11 PM 58.9333 -119.3333 284° West 470 541 35,000  Level Edmonton Center
Sun 05:15:11 PM 58.9833 -119.5500 294° West 460 529 35,000  Level Edmonton Center
Sun 05:16:11 PM 59.0333 -119.8000 291° West 460 529 35,000  Level Edmonton Center
Sun 05:17:11 PM 59.0667 -120.0500 285° West 470 541 35,000  Level Edmonton Center
Sun 05:19:00 PM 59.1458 -120.4771 290° West  Level FlightAware Approximate
Sun 05:26:00 PM 59.4373 -122.1412 290° West  Level FlightAware Approximate
Sun 05:27:00 PM 59.4772 -122.3812 288° West  Level FlightAware Approximate
Sun 05:28:00 PM 59.5167 -122.6218 288° West  Level FlightAware Approximate
Sun 05:29:00 PM 59.5557 -122.8630 288° West  Level FlightAware Approximate
Sun 05:30:00 PM 59.5943 -123.1047 288° West  Level FlightAware Approximate
Sun 05:31:00 PM 59.6324 -123.3469 287° West  Level FlightAware Approximate
Sun 05:32:00 PM 59.6701 -123.5897 287° West  Level FlightAware Approximate
Sun 05:33:00 PM 59.7073 -123.8331 287° West  Level FlightAware Approximate
Sun 05:34:00 PM 59.7441 -124.0770 287° West  Level FlightAware Approximate
Sun 05:35:00 PM 59.7804 -124.3214 287° West  Level FlightAware Approximate
Sun 05:36:00 PM 59.8163 -124.5663 286° West  Level FlightAware Approximate
Sun 05:37:00 PM 59.8517 -124.8118 286° West  Level FlightAware Approximate
Sun 05:38:00 PM 59.8867 -125.0578 286° West  Level FlightAware Approximate
Sun 05:39:00 PM 59.9212 -125.3043 286° West  Level FlightAware Approximate
Sun 05:40:00 PM 59.9552 -125.5513 285° West  Level FlightAware Approximate
Sun 05:41:00 PM 59.9888 -125.7988 285° West  Level FlightAware Approximate
Sun 05:42:00 PM 60.0219 -126.0469 285° West  Level FlightAware Approximate
Sun 05:43:00 PM 60.0528 -126.2963 284° West  Level FlightAware Approximate
Sun 05:44:00 PM 60.0823 -126.5466 283° West  Level FlightAware Approximate
Sun 05:45:00 PM 60.1113 -126.7974 283° West  Level FlightAware Approximate
Sun 05:46:00 PM 60.1398 -127.0486 283° West  Level FlightAware Approximate
Sun 05:47:00 PM 60.1679 -127.3002 283° West  Level FlightAware Approximate
Sun 05:48:00 PM 60.1955 -127.5523 283° West  Level FlightAware Approximate
Sun 05:49:00 PM 60.2226 -127.8048 282° West  Level FlightAware Approximate
Sun 05:50:00 PM 60.2492 -128.0577 282° West  Level FlightAware Approximate
Sun 05:51:00 PM 60.2753 -128.3110 282° West  Level FlightAware Approximate
Sun 05:52:00 PM 60.3010 -128.5647 282° West  Level FlightAware Approximate
Sun 05:53:00 PM 60.3262 -128.8188 281° West  Level FlightAware Approximate
Sun 05:54:00 PM 60.3508 -129.0733 281° West  Level FlightAware Approximate
Sun 05:55:00 PM 60.3750 -129.3282 281° West  Level FlightAware Approximate
Sun 05:56:00 PM 60.3913 -129.5861 277° West  Level FlightAware Approximate
Sun 05:57:00 PM 60.4070 -129.8443 277° West  Level FlightAware Approximate
Sun 05:58:00 PM 60.4221 -130.1027 277° West  Level FlightAware Approximate
Sun 05:59:00 PM 60.4368 -130.3613 277° West  Level FlightAware Approximate
Sun 06:00:00 PM 60.4510 -130.6202 276° West  Level FlightAware Approximate
Sun 06:01:00 PM 60.4647 -130.8793 276° West  Level FlightAware Approximate
Sun 06:02:00 PM 60.4869 -131.1369 280° West  Level FlightAware Approximate
Sun 06:03:00 PM 60.5085 -131.3949 280° West  Level FlightAware Approximate
Sun 06:04:00 PM 60.5297 -131.6533 280° West  Level FlightAware Approximate
Sun 06:05:00 PM 60.5503 -131.9120 279° West  Level FlightAware Approximate
Sun 06:06:00 PM 60.5705 -132.1710 279° West  Level FlightAware Approximate
Sun 06:07:00 PM 60.5772 -132.4325 273° West  Level FlightAware Approximate
Sun 06:08:00 PM 60.5834 -132.6942 273° West  Level FlightAware Approximate
Sun 06:09:00 PM 60.5891 -132.9559 273° West  Level FlightAware Approximate
Sun 06:10:00 PM 60.5943 -133.2178 272° West  Level FlightAware Approximate
Sun 06:11:00 PM 60.5990 -133.4797 272° West  Level FlightAware Approximate
Sun 06:12:00 PM 60.6031 -133.7417 272° West  Level FlightAware Approximate
Sun 06:13:00 PM 60.6068 -134.0038 272° West  Level FlightAware Approximate
Sun 06:14:00 PM 60.6099 -134.2659 272° West  Level FlightAware Approximate
Sun 06:15:00 PM 60.6126 -134.5281 271° West  Level FlightAware Approximate
Sun 06:16:00 PM 60.6147 -134.7903 271° West  Level FlightAware Approximate
Sun 06:17:00 PM 60.6163 -135.0525 271° West  Level FlightAware Approximate
Sun 06:18:00 PM 60.6314 -135.3220 279° West  Level FlightAware Approximate
Sun 06:19:00 PM 60.6513 -135.5813 279° West  Level FlightAware Approximate
Sun 06:19:26 PM 60.7167 -136.5667 278° West 510 587 35,000  Level Anchorage Center
Sun 06:20:00 PM 60.6706 -135.8409 279° West  Level FlightAware Approximate
Sun 06:20:26 PM 60.7333 -136.8667 277° West 520 598 35,000  Level Anchorage Center
Sun 06:21:00 PM 60.6895 -136.1009 279° West  Level FlightAware Approximate
Sun 06:21:27 PM 60.7500 -137.1500 277° West 500 575 35,000  Level Anchorage Center
Sun 06:22:00 PM 60.7078 -136.3611 278° West  Level FlightAware Approximate
Sun 06:22:27 PM 60.7833 -137.4333 284° West 500 575 35,000  Level Anchorage Center
Sun 06:23:00 PM 60.7257 -136.6216 278° West  Level FlightAware Approximate
Sun 06:23:27 PM 60.8000 -137.7167 277° West 500 575 35,000  Level Anchorage Center
Sun 06:24:00 PM 60.7430 -136.8825 278° West  Level FlightAware Approximate
Sun 06:24:28 PM 60.8000 -137.9833 270° West 500 575 35,000  Level Anchorage Center
Sun 06:25:28 PM 60.8167 -138.2667 277° West 500 575 35,000  Level Anchorage Center
Sun 06:26:29 PM 60.8333 -138.5500 277° West 500 575 35,000  Level Anchorage Center
Sun 06:27:29 PM 60.8500 -138.8333 277° West 500 575 35,000  Level Anchorage Center
Sun 06:28:29 PM 60.8667 -139.1167 277° West 500 575 35,000  Level Anchorage Center
Sun 06:29:30 PM 60.8833 -139.4000 277° West 500 575 35,000  Level Anchorage Center
Sun 06:30:30 PM 60.9000 -139.7000 277° West 510 587 35,000  Level Anchorage Center
Sun 06:31:30 PM 60.9167 -139.9833 277° West 510 587 35,000  Level Anchorage Center
Sun 06:32:30 PM 60.9167 -140.2667 270° West 510 587 35,000  Level Anchorage Center
Sun 06:33:31 PM 60.9333 -140.5500 277° West 500 575 35,000  Level Anchorage Center
Sun 06:34:31 PM 60.9500 -140.8500 277° West 500 575 35,000  Level Anchorage Center
Sun 06:35:31 PM 60.9500 -141.1333 270° West 500 575 35,000  Level Anchorage Center
Sun 06:36:32 PM 60.9667 -141.4167 277° West 500 575 35,000  Level Anchorage Center
Sun 06:37:32 PM 60.9833 -141.7000 277° West 500 575 35,000  Level Anchorage Center
Sun 06:39:00 PM 60.9937 -142.0861 273° West  Level FlightAware Approximate
Sun 06:39:33 PM 61.0000 -142.2667 273° West 490 564 35,000  Level Anchorage Center
Sun 06:40:33 PM 61.0000 -142.5500 270° West 490 564 35,000  Level Anchorage Center
Sun 06:41:33 PM 61.0000 -142.8333 270° West 480 552 35,000  Level Anchorage Center
Sun 06:42:34 PM 61.0167 -143.1167 277° West 490 564 35,000 -496 Level Anchorage Center
Sun 06:43:34 PM 60.9833 -143.4333 258° West 480 552 34,000 -500 Descending Anchorage Center
Sun 06:44:34 PM 60.9500 -143.7000 256° West 490 564 34,000  Level Anchorage Center
Sun 06:45:35 PM 60.9167 -143.9833 257° West 480 552 34,000  Level Anchorage Center
Sun 06:46:35 PM 60.9000 -144.2500 263° West 490 564 34,000  Level Anchorage Center
Sun 06:47:35 PM 60.8667 -144.5333 257° West 490 564 34,000  Level Anchorage Center
Sun 06:48:36 PM 60.8500 -144.8000 263° West 480 552 34,000  Level Anchorage Center
Sun 06:49:36 PM 60.8333 -145.0833 263° West 490 564 34,000  Level Anchorage Center
Sun 06:50:37 PM 60.8167 -145.3500 263° West 470 541 34,000  Level Anchorage Center
Sun 06:51:37 PM 60.8000 -145.6167 263° West 470 541 34,000  Level Anchorage Center
Sun 06:52:37 PM 60.8000 -145.8833 270° West 470 541 34,000 -300 Level Anchorage Center
Sun 06:53:37 PM 60.7833 -146.1500 263° West 480 552 33,400 -1,000 Descending Anchorage Center
Sun 06:54:37 PM 60.7667 -146.4167 263° West 460 529 32,000 -1,624 Descending Anchorage Center
Sun 06:56:38 PM 60.8000 -146.9167 278° West 440 506 28,500 -1,720 Descending Anchorage Center
Sun 07:02:28 PM 60.9180 -148.3090 278° West 389 448 18,500 -1,708 Descending FlightAware ADS-B
Sun 07:03:08 PM 60.9290 -148.4540 279° West 384 442 17,400 -1,571 Descending FlightAware ADS-B
Sun 07:03:52 PM 60.9400 -148.6110 278° West 378 435 16,300 -1,429 Descending FlightAware ADS-B
Sun 07:04:32 PM 60.9510 -148.7530 279° West 371 427 15,400 -1,452 Descending FlightAware ADS-B
Sun 07:05:56 PM 60.9730 -149.0440 279° West 361 415 13,300 -1,161 Descending FlightAware ADS-B
Sun 07:06:36 PM 60.9820 -149.1760 278° West 336 387 13,000 -500 Descending FlightAware ADS-B
Sun 07:07:20 PM 60.9940 -149.3090 281° West 319 367 12,600 -1,000 Descending FlightAware ADS-B
Sun 07:08:00 PM 61.0100 -149.4250 286° West 316 364 11,600 -1,444 Descending FlightAware ADS-B
Sun 07:09:08 PM 61.0360 -149.6240 285° West 314 361 10,000 -1,188 Descending FlightAware ADS-B
Sun 07:09:36 PM 61.0470 -149.7030 286° West 301 346 9,700 -1,000 Descending FlightAware ADS-B
Sun 07:10:08 PM 61.0580 -149.7910 285° West 300 345 9,000 -1,227 Descending FlightAware ADS-B
Sun 07:10:20 PM 61.0620 -149.8240 284° West 292 336 8,800 -1,050 Descending FlightAware ADS-B
Sun 07:10:48 PM 61.0690 -149.9010 281° West 283 326 8,300 -1,235 Descending FlightAware ADS-B
Sun 07:11:28 PM 61.0780 -150.0030 280° West 275 316 7,400 -1,031 Descending FlightAware ADS-B
Sun 07:11:52 PM 61.0840 -150.0630 282° West 260 299 7,200 -750 Descending FlightAware ADS-B
Sun 07:12:24 PM 61.0860 -150.1410 273° West 240 276 6,700 -923 Descending FlightAware ADS-B
Sun 07:12:31 PM 61.0860 -150.1540 270° West 239 275 6,600 -1,050 Descending FlightAware ADS-B
Sun 07:13:04 PM 61.0860 -150.2290 270° West 226 260 6,000 -1,143 Descending FlightAware ADS-B
Sun 07:13:34 PM 61.0860 -150.2940 270° West 221 254 5,400 -1,174 Descending FlightAware ADS-B
Sun 07:13:50 PM 61.0850 -150.3260 266° West 222 255 5,100 -1,171 Descending FlightAware ADS-B
Sun 07:14:15 PM 61.0860 -150.3790 272° West 222 255 4,600 -1,350 Descending FlightAware ADS-B
Sun 07:14:30 PM 61.0870 -150.4110 274° West 224 258 4,200 -1,400 Descending FlightAware ADS-B
Sun 07:14:45 PM 61.0940 -150.4350 301° West 226 260 3,900 -1,200 Descending FlightAware ADS-B
Sun 07:14:55 PM 61.1040 -150.4490 326° Northwest 224 258 3,700 -960 Descending FlightAware ADS-B
Sun 07:15:10 PM 61.1190 -150.4530 353° North 214 246 3,500 -933 Descending FlightAware ADS-B
Sun 07:15:40 PM 61.1440 -150.4300 24° Northeast 195 224 3,000 -900 Descending FlightAware ADS-B
Sun 07:15:50 PM 61.1490 -150.4160 53° Northeast 190 219 2,900 -600 Descending FlightAware ADS-B
Sun 07:16:10 PM 61.1580 -150.3840 60° Northeast 179 206 2,700 -600 Descending FlightAware ADS-B
Sun 07:16:20 PM 61.1590 -150.3700 82° East 173 199 2,600 -750 Descending FlightAware ADS-B
Sun 07:16:50 PM 61.1590 -150.3200 90° East 165 190 2,200 -621 Descending FlightAware ADS-B
Sun 07:17:18 PM 61.1590 -150.2740 90° East 163 188 2,000 -273 Descending FlightAware ADS-B
Sun 07:17:34 PM 61.1600 -150.2490 85° East 160 184 2,000 -545 Level FlightAware ADS-B
Sun 07:18:02 PM 61.1600 -150.2080 90° East 151 174 1,600 -750 Descending FlightAware ADS-B
Sun 07:18:14 PM 61.1600 -150.1910 90° East 155 178 1,500 -706 Descending FlightAware ADS-B
Sun 07:18:36 PM 61.1600 -150.1570 90° East 163 188 1,200 -923 Descending FlightAware ADS-B
Sun 07:19:06 PM 61.1600 -150.1100 90° East 162 186 700 -885 Descending FlightAware ADS-B
Sun 07:19:37 PM 61.1600 -150.0620 90° East 164 189 300 -774 Descending FlightAware ADS-B
Sun 07:19:54 PM 61.1610 -150.0350 86° East 155 178 -1,059 Descending FlightAware ADS-B
Sun 07:20:14 PM 61.1610 -150.0110 90° East 82 94  Level FlightAware ADS-B
Sun 07:22:00 PM 61.1667 -149.9833 270° West  Level FlightAware Approximate
Sun 07:23:00 PM 61.1741 -149.9982 270° West  Level Estimated
Sun 07:24:00 PM 61.1741 -149.9982 270° West  Level Estimated
Sun 07:25:00 PM 61.1741 -149.9982 270° West  Level Estimated

Login

Don't have an account? Register now (free) for customized features, flight alerts, and more!